createdAt,value
2023-05-09T00:00:27.456Z,40.81
2023-05-09T00:01:27.478Z,40.78
2023-05-09T00:02:27.577Z,40.77
2023-05-09T00:03:27.505Z,40.73
2023-05-09T00:04:27.567Z,40.74
2023-05-09T00:05:27.505Z,40.72
2023-05-09T00:06:27.489Z,40.74
2023-05-09T00:07:27.493Z,40.75
2023-05-09T00:08:27.493Z,40.75
2023-05-09T00:09:27.525Z,40.71
2023-05-09T00:10:27.525Z,40.71
2023-05-09T00:11:27.541Z,40.73
2023-05-09T00:12:27.530Z,40.71
2023-05-09T00:13:27.611Z,40.68
2023-05-09T00:14:27.596Z,40.70
2023-05-09T00:15:27.746Z,40.72
2023-05-09T00:16:27.722Z,40.69
2023-05-09T00:17:27.774Z,40.68
2023-05-09T00:18:27.783Z,40.70
2023-05-09T00:19:27.757Z,40.70
2023-05-09T00:20:27.756Z,40.69
2023-05-09T00:21:27.766Z,40.71
2023-05-09T00:22:27.758Z,40.65
2023-05-09T00:23:27.753Z,40.67
2023-05-09T00:24:27.743Z,40.69
2023-05-09T00:25:27.757Z,40.70
2023-05-09T00:26:27.805Z,40.71
2023-05-09T00:27:27.797Z,40.69
2023-05-09T00:28:27.823Z,40.71
2023-05-09T00:29:27.822Z,40.72
2023-05-09T00:30:27.808Z,40.71
2023-05-09T00:31:27.958Z,40.70
2023-05-09T00:32:27.815Z,40.70
2023-05-09T00:33:27.801Z,40.68
2023-05-09T00:34:27.798Z,40.69
2023-05-09T00:35:27.815Z,40.74
2023-05-09T00:36:27.801Z,40.69
2023-05-09T00:37:27.824Z,40.70
2023-05-09T00:38:27.806Z,40.63
2023-05-09T00:39:27.822Z,40.66
2023-05-09T00:40:27.793Z,40.69
2023-05-09T00:41:27.836Z,40.64
2023-05-09T00:42:27.815Z,40.64
2023-05-09T00:43:27.808Z,40.66
2023-05-09T00:44:27.843Z,40.67
2023-05-09T00:45:27.843Z,40.65
2023-05-09T00:46:27.879Z,40.64
2023-05-09T00:47:27.931Z,40.62
2023-05-09T00:48:27.847Z,40.62
2023-05-09T00:49:27.852Z,40.61
2023-05-09T00:50:27.843Z,40.63
2023-05-09T00:51:27.843Z,40.62
2023-05-09T00:52:27.839Z,40.64
2023-05-09T00:53:27.843Z,40.62
2023-05-09T00:54:27.880Z,40.64
2023-05-09T00:55:27.929Z,40.61
2023-05-09T00:56:27.849Z,40.62
2023-05-09T00:57:27.845Z,40.63
2023-05-09T00:58:27.832Z,40.63
2023-05-09T00:59:27.845Z,40.61
2023-05-09T01:00:27.876Z,40.65
2023-05-09T01:01:27.955Z,40.66
2023-05-09T01:02:28.003Z,40.61
2023-05-09T01:03:28.155Z,40.64
2023-05-09T01:04:28.028Z,40.61
2023-05-09T01:05:28.073Z,40.57
2023-05-09T01:06:28.144Z,40.60
2023-05-09T01:07:28.176Z,40.60
2023-05-09T01:08:28.330Z,40.61
2023-05-09T01:09:28.242Z,40.63
2023-05-09T01:10:28.300Z,40.59
2023-05-09T01:11:28.356Z,40.59
2023-05-09T01:12:28.327Z,40.56
2023-05-09T01:13:28.406Z,40.56
2023-05-09T01:14:28.383Z,40.60
2023-05-09T01:15:28.454Z,40.61
2023-05-09T01:16:28.567Z,40.60
2023-05-09T01:17:28.500Z,40.62
2023-05-09T01:18:28.473Z,40.60
2023-05-09T01:19:28.546Z,40.59
2023-05-09T01:20:28.481Z,40.62
2023-05-09T01:21:28.473Z,40.60
2023-05-09T01:22:28.462Z,40.63
2023-05-09T01:23:28.475Z,40.64
2023-05-09T01:24:28.478Z,40.61
2023-05-09T01:25:28.494Z,40.60
2023-05-09T01:26:28.497Z,40.64
2023-05-09T01:27:28.486Z,40.61
2023-05-09T01:28:28.493Z,40.60
2023-05-09T01:29:28.474Z,40.55
2023-05-09T01:30:28.487Z,40.58
2023-05-09T01:31:28.553Z,40.57
2023-05-09T01:32:28.562Z,40.58
2023-05-09T01:33:28.493Z,40.57
2023-05-09T01:34:28.510Z,40.60
2023-05-09T01:35:28.660Z,40.62
2023-05-09T01:36:28.591Z,40.60
2023-05-09T01:37:28.595Z,40.60
2023-05-09T01:38:28.571Z,40.58
2023-05-09T01:39:28.580Z,40.61
2023-05-09T01:40:28.620Z,40.61
2023-05-09T01:41:28.645Z,40.61
2023-05-09T01:42:28.691Z,40.65
2023-05-09T01:43:28.760Z,40.68
2023-05-09T01:44:28.800Z,40.67
2023-05-09T01:45:28.838Z,40.66
2023-05-09T01:46:28.884Z,40.58
2023-05-09T01:47:28.885Z,40.63
2023-05-09T01:48:28.883Z,40.62
2023-05-09T01:49:28.863Z,40.66
2023-05-09T01:50:28.889Z,40.68
2023-05-09T01:51:28.957Z,40.70
2023-05-09T01:52:28.872Z,40.68
2023-05-09T01:53:28.907Z,40.66
2023-05-09T01:54:28.883Z,40.68
2023-05-09T01:55:28.893Z,40.70
2023-05-09T01:56:28.868Z,40.71
2023-05-09T01:57:28.865Z,40.72
2023-05-09T01:58:28.898Z,40.71
2023-05-09T01:59:28.868Z,40.67
2023-05-09T02:00:28.860Z,40.70
2023-05-09T02:01:28.881Z,40.65
2023-05-09T02:02:28.995Z,40.67
2023-05-09T02:03:28.908Z,40.69
2023-05-09T02:04:28.873Z,40.70
2023-05-09T02:05:28.892Z,40.68
2023-05-09T02:06:28.876Z,40.71
2023-05-09T02:07:28.955Z,40.66
2023-05-09T02:08:28.921Z,40.66
2023-05-09T02:09:28.981Z,40.67
2023-05-09T02:10:29.015Z,40.65
2023-05-09T02:11:29.109Z,40.67
2023-05-09T02:12:29.088Z,40.64
2023-05-09T02:13:29.116Z,40.68
2023-05-09T02:14:29.086Z,40.69
2023-05-09T02:15:29.161Z,40.69
2023-05-09T02:16:29.225Z,40.73
2023-05-09T02:17:29.225Z,40.67
2023-05-09T02:18:29.222Z,40.68
2023-05-09T02:19:29.222Z,40.67
2023-05-09T02:20:29.242Z,40.65
2023-05-09T02:21:29.353Z,40.67
2023-05-09T02:22:29.326Z,40.68
2023-05-09T02:23:29.396Z,40.67
2023-05-09T02:24:29.322Z,40.70
2023-05-09T02:25:29.324Z,40.69
2023-05-09T02:26:29.316Z,40.65
2023-05-09T02:27:29.317Z,40.66
2023-05-09T02:28:29.314Z,40.66
2023-05-09T02:29:29.311Z,40.67
2023-05-09T02:30:29.294Z,40.62
2023-05-09T02:31:29.438Z,40.60
2023-05-09T02:32:29.362Z,40.69
2023-05-09T02:33:29.296Z,40.63
2023-05-09T02:34:29.278Z,40.63
2023-05-09T02:35:29.321Z,40.68
2023-05-09T02:36:29.291Z,40.67
2023-05-09T02:37:29.315Z,40.62
2023-05-09T02:38:29.311Z,40.64
2023-05-09T02:39:29.402Z,40.66
2023-05-09T02:40:29.339Z,40.69
2023-05-09T02:41:29.330Z,40.66
2023-05-09T02:42:29.326Z,40.72
2023-05-09T02:43:29.342Z,40.63
2023-05-09T02:44:29.307Z,40.66
2023-05-09T02:45:29.328Z,40.68
2023-05-09T02:46:29.386Z,40.66
2023-05-09T02:47:29.369Z,40.70
2023-05-09T02:48:29.351Z,40.69
2023-05-09T02:49:32.366Z,40.68
2023-05-09T02:50:29.334Z,40.66
2023-05-09T02:51:29.330Z,40.70
2023-05-09T02:52:29.365Z,40.71
2023-05-09T02:53:29.320Z,40.70
2023-05-09T02:54:29.305Z,40.68
2023-05-09T02:55:29.380Z,40.72
2023-05-09T02:56:29.327Z,40.72
2023-05-09T02:57:29.278Z,40.72
2023-05-09T02:58:29.270Z,40.65
2023-05-09T02:59:29.334Z,40.71
2023-05-09T03:00:29.277Z,40.72
2023-05-09T03:01:29.293Z,40.74
2023-05-09T03:02:29.418Z,40.69
2023-05-09T03:03:29.439Z,40.70
2023-05-09T03:04:29.244Z,40.70
2023-05-09T03:05:29.229Z,40.72
2023-05-09T03:06:29.245Z,40.72
2023-05-09T03:07:29.217Z,40.70
2023-05-09T03:08:29.217Z,40.71
2023-05-09T03:09:29.196Z,40.70
2023-05-09T03:10:29.188Z,40.66
2023-05-09T03:11:29.265Z,40.71
2023-05-09T03:12:29.224Z,40.70
2023-05-09T03:13:29.169Z,40.75
2023-05-09T03:14:29.169Z,40.78
2023-05-09T03:15:29.158Z,40.75
2023-05-09T03:16:29.165Z,40.76
2023-05-09T03:17:29.175Z,40.69
2023-05-09T03:18:29.147Z,40.72
2023-05-09T03:19:29.145Z,40.69
2023-05-09T03:20:29.154Z,40.75
2023-05-09T03:21:29.127Z,40.77
2023-05-09T03:22:29.126Z,40.79
2023-05-09T03:23:29.101Z,40.78
2023-05-09T03:24:29.106Z,40.74
2023-05-09T03:25:29.110Z,40.75
2023-05-09T03:26:29.220Z,40.76
2023-05-09T03:27:29.294Z,40.73
2023-05-09T03:28:29.251Z,40.76
2023-05-09T03:29:29.073Z,40.75
2023-05-09T03:30:29.078Z,40.74
2023-05-09T03:31:29.081Z,40.73
2023-05-09T03:32:29.145Z,40.77
2023-05-09T03:33:29.061Z,40.79
2023-05-09T03:34:29.051Z,40.73
2023-05-09T03:35:29.045Z,40.75
2023-05-09T03:36:29.124Z,40.79
2023-05-09T03:37:29.017Z,40.76
2023-05-09T03:38:29.012Z,40.73
2023-05-09T03:39:29.018Z,40.77
2023-05-09T03:40:28.998Z,40.73
2023-05-09T03:41:29.002Z,40.76
2023-05-09T03:42:29.006Z,40.73
2023-05-09T03:43:29.089Z,40.73
2023-05-09T03:44:28.993Z,40.73
2023-05-09T03:45:28.984Z,40.67
2023-05-09T03:46:29.024Z,40.72
2023-05-09T03:47:29.016Z,40.72
2023-05-09T03:48:28.958Z,40.74
2023-05-09T03:49:28.954Z,40.69
2023-05-09T03:50:28.948Z,40.75
2023-05-09T03:51:28.923Z,40.72
2023-05-09T03:52:28.941Z,40.70
2023-05-09T03:53:28.914Z,40.68
2023-05-09T03:54:28.920Z,40.71
2023-05-09T03:55:28.932Z,40.68
2023-05-09T03:56:28.901Z,40.69
2023-05-09T03:57:28.901Z,40.67
2023-05-09T03:58:28.886Z,40.69
2023-05-09T03:59:28.958Z,40.67
2023-05-09T04:00:28.887Z,40.68
2023-05-09T04:01:28.891Z,40.70
2023-05-09T04:02:29.026Z,40.77
2023-05-09T04:03:28.921Z,40.71
2023-05-09T04:04:28.843Z,40.69
2023-05-09T04:05:28.830Z,40.73
2023-05-09T04:06:28.835Z,40.72
2023-05-09T04:07:28.833Z,40.72
2023-05-09T04:08:28.835Z,40.72
2023-05-09T04:09:28.843Z,40.68
2023-05-09T04:10:28.824Z,40.68
2023-05-09T04:11:28.829Z,40.70
2023-05-09T04:12:28.863Z,40.70
2023-05-09T04:13:28.900Z,40.73
2023-05-09T04:14:28.869Z,40.71
2023-05-09T04:15:28.903Z,40.71
2023-05-09T04:16:28.933Z,40.74
2023-05-09T04:17:28.935Z,40.72
2023-05-09T04:18:28.914Z,40.73
2023-05-09T04:19:28.938Z,40.68
2023-05-09T04:20:28.942Z,40.71
2023-05-09T04:21:28.956Z,40.68
2023-05-09T04:22:28.958Z,40.72
2023-05-09T04:23:28.968Z,40.71
2023-05-09T04:24:28.989Z,40.72
2023-05-09T04:25:28.963Z,40.69
2023-05-09T04:26:28.968Z,40.71
2023-05-09T04:27:29.019Z,40.71
2023-05-09T04:28:29.061Z,40.72
2023-05-09T04:29:29.076Z,40.72
2023-05-09T04:30:29.071Z,40.74
2023-05-09T04:31:29.386Z,40.68
2023-05-09T04:32:29.124Z,40.70
2023-05-09T04:33:29.143Z,40.71
2023-05-09T04:34:29.119Z,40.66
2023-05-09T04:35:29.156Z,40.75
2023-05-09T04:36:29.145Z,40.72
2023-05-09T04:37:29.170Z,40.70
2023-05-09T04:38:29.393Z,40.73
2023-05-09T04:39:29.187Z,40.71
2023-05-09T04:40:29.214Z,40.73
2023-05-09T04:41:29.210Z,40.69
2023-05-09T04:42:29.227Z,40.71
2023-05-09T04:43:29.262Z,40.76
2023-05-09T04:44:29.261Z,40.78
2023-05-09T04:45:29.322Z,40.75
2023-05-09T04:46:29.408Z,40.76
2023-05-09T04:47:29.563Z,40.75
2023-05-09T04:48:29.509Z,40.70
2023-05-09T04:49:29.512Z,40.71
2023-05-09T04:50:29.562Z,40.72
2023-05-09T04:51:29.589Z,40.68
2023-05-09T04:52:29.629Z,40.70
2023-05-09T04:53:29.659Z,40.67
2023-05-09T04:54:29.649Z,40.71
2023-05-09T04:55:29.649Z,40.74
2023-05-09T04:56:29.679Z,40.73
2023-05-09T04:57:29.669Z,40.72
2023-05-09T04:58:29.686Z,40.73
2023-05-09T04:59:29.698Z,40.70
2023-05-09T05:00:29.707Z,40.75
2023-05-09T05:01:29.760Z,40.73
2023-05-09T05:02:29.763Z,40.76
2023-05-09T05:03:29.837Z,40.77
2023-05-09T05:04:29.808Z,40.78
2023-05-09T05:05:30.122Z,40.81
2023-05-09T05:06:29.808Z,40.80
2023-05-09T05:07:29.814Z,40.75
2023-05-09T05:08:29.824Z,40.83
2023-05-09T05:09:29.911Z,40.77
2023-05-09T05:10:29.882Z,40.81
2023-05-09T05:11:29.911Z,40.78
2023-05-09T05:12:29.915Z,40.78
2023-05-09T05:13:29.930Z,40.77
2023-05-09T05:14:29.920Z,40.82
2023-05-09T05:15:29.929Z,40.75
2023-05-09T05:16:30.002Z,40.83
2023-05-09T05:17:30.053Z,40.86
2023-05-09T05:18:30.039Z,40.77
2023-05-09T05:19:30.204Z,40.82
2023-05-09T05:20:30.156Z,40.79
2023-05-09T05:21:30.214Z,40.86
2023-05-09T05:22:31.645Z,40.78
2023-05-09T05:23:30.762Z,40.83
2023-05-09T05:24:30.340Z,40.79
2023-05-09T05:25:30.353Z,40.85
2023-05-09T05:26:30.326Z,40.77
2023-05-09T05:27:30.347Z,40.96
2023-05-09T05:28:30.774Z,41.15
2023-05-09T05:29:30.375Z,41.10
2023-05-09T05:30:31.580Z,41.28
2023-05-09T05:31:30.418Z,41.37
2023-05-09T05:32:30.405Z,41.41
2023-05-09T05:33:30.765Z,41.38
2023-05-09T05:34:30.479Z,41.99
2023-05-09T05:35:30.599Z,42.25
2023-05-09T05:36:30.563Z,41.99
2023-05-09T05:37:30.759Z,42.15
2023-05-09T05:38:30.632Z,42.32
2023-05-09T05:39:30.685Z,42.97
2023-05-09T05:40:30.734Z,43.02
2023-05-09T05:41:30.816Z,43.22
2023-05-09T05:42:30.869Z,43.23
2023-05-09T05:43:30.923Z,43.12
2023-05-09T05:44:31.002Z,43.28
2023-05-09T05:45:31.098Z,43.32
2023-05-09T05:46:31.060Z,43.73
2023-05-09T05:47:31.174Z,43.62
2023-05-09T05:48:31.157Z,43.61
2023-05-09T05:49:31.224Z,43.56
2023-05-09T05:50:31.251Z,43.44
2023-05-09T05:51:31.342Z,43.54
2023-05-09T05:52:31.327Z,43.59
2023-05-09T05:53:32.711Z,43.67
2023-05-09T05:54:31.367Z,43.65
2023-05-09T05:55:31.390Z,43.70
2023-05-09T05:56:31.419Z,43.76
2023-05-09T05:57:31.489Z,43.79
2023-05-09T05:58:31.528Z,43.87
2023-05-09T05:59:31.542Z,43.89
2023-05-09T06:00:31.660Z,43.92
2023-05-09T06:01:31.698Z,43.91
2023-05-09T06:02:31.708Z,44.00
2023-05-09T06:03:31.822Z,44.02
2023-05-09T06:04:31.789Z,44.13
2023-05-09T06:05:31.876Z,44.29
2023-05-09T06:06:31.830Z,44.49
2023-05-09T06:07:31.903Z,44.35
2023-05-09T06:08:31.830Z,44.37
2023-05-09T06:09:31.818Z,44.35
2023-05-09T06:10:31.842Z,44.40
2023-05-09T06:11:31.840Z,44.58
2023-05-09T06:12:31.882Z,44.57
2023-05-09T06:13:32.270Z,44.73
2023-05-09T06:14:32.289Z,44.72
2023-05-09T06:15:31.916Z,44.58
2023-05-09T06:16:31.895Z,44.68
2023-05-09T06:17:31.904Z,44.68
2023-05-09T06:18:31.886Z,44.65
2023-05-09T06:19:31.907Z,44.83
2023-05-09T06:20:31.881Z,44.83
2023-05-09T06:21:31.849Z,44.81
2023-05-09T06:22:31.847Z,44.74
2023-05-09T06:23:31.965Z,44.91
2023-05-09T06:24:35.792Z,44.87
2023-05-09T06:25:31.889Z,44.86
2023-05-09T06:26:31.887Z,44.87
2023-05-09T06:27:31.886Z,44.92
2023-05-09T06:28:31.855Z,44.91
2023-05-09T06:29:31.881Z,44.94
2023-05-09T06:30:31.871Z,44.94
2023-05-09T06:31:31.848Z,44.74
2023-05-09T06:32:31.896Z,44.69
2023-05-09T06:33:31.837Z,44.41
2023-05-09T06:34:32.287Z,44.03
2023-05-09T06:35:31.893Z,43.81
2023-05-09T06:36:31.810Z,44.11
2023-05-09T06:37:31.801Z,43.67
2023-05-09T06:38:31.931Z,43.83
2023-05-09T06:39:31.867Z,43.88
2023-05-09T06:40:31.771Z,43.78
2023-05-09T06:41:31.794Z,43.53
2023-05-09T06:42:31.762Z,43.36
2023-05-09T06:43:31.773Z,43.46
2023-05-09T06:44:31.765Z,43.34
2023-05-09T06:45:31.773Z,43.61
2023-05-09T06:46:31.776Z,43.65
2023-05-09T06:47:31.987Z,43.35
2023-05-09T06:48:32.452Z,43.78
2023-05-09T06:49:31.867Z,43.90
2023-05-09T06:50:32.919Z,43.74
2023-05-09T06:51:31.949Z,43.55
2023-05-09T06:52:32.046Z,43.53
2023-05-09T06:53:32.340Z,43.79
2023-05-09T06:54:32.147Z,43.64
2023-05-09T06:55:32.290Z,43.93
2023-05-09T06:56:32.269Z,43.96
2023-05-09T06:57:32.456Z,43.93
2023-05-09T06:58:32.865Z,43.63
2023-05-09T06:59:32.793Z,43.52
2023-05-09T07:00:32.409Z,43.38
2023-05-09T07:01:32.593Z,43.35
2023-05-09T07:02:32.524Z,43.14
2023-05-09T07:03:32.503Z,43.28
2023-05-09T07:04:32.566Z,43.16
2023-05-09T07:05:32.756Z,43.06
2023-05-09T07:06:32.630Z,43.33
2023-05-09T07:07:32.626Z,43.67
2023-05-09T07:08:32.692Z,43.47
2023-05-09T07:09:32.641Z,43.64
2023-05-09T07:10:32.710Z,43.69
2023-05-09T07:11:32.767Z,43.51
2023-05-09T07:12:32.713Z,43.30
2023-05-09T07:13:32.717Z,43.11
2023-05-09T07:14:32.825Z,42.95
2023-05-09T07:15:41.289Z,43.05
2023-05-09T07:16:35.808Z,43.11
2023-05-09T07:17:32.877Z,43.13
2023-05-09T07:18:32.712Z,43.14
2023-05-09T07:19:32.842Z,43.08
2023-05-09T07:20:32.722Z,43.14
2023-05-09T07:21:32.686Z,43.26
2023-05-09T07:22:34.113Z,43.27
2023-05-09T07:23:32.654Z,43.24
2023-05-09T07:24:32.876Z,43.39
2023-05-09T07:25:32.695Z,43.08
2023-05-09T07:26:32.660Z,43.10
2023-05-09T07:27:32.737Z,42.84
2023-05-09T07:28:32.689Z,43.17
2023-05-09T07:29:32.630Z,43.17
2023-05-09T07:30:32.629Z,42.99
2023-05-09T07:31:33.548Z,42.75
2023-05-09T07:32:32.834Z,42.35
2023-05-09T07:33:32.818Z,42.20
2023-05-09T07:34:32.839Z,42.24
2023-05-09T07:35:32.871Z,42.20
2023-05-09T07:36:34.746Z,42.21
2023-05-09T07:37:33.018Z,42.34
2023-05-09T07:38:33.297Z,42.39
2023-05-09T07:39:33.330Z,42.57
2023-05-09T07:40:33.209Z,42.58
2023-05-09T07:41:33.260Z,42.51
2023-05-09T07:42:33.267Z,42.54
2023-05-09T07:43:33.268Z,42.63
2023-05-09T07:44:33.262Z,42.79
2023-05-09T07:45:33.322Z,42.78
2023-05-09T07:46:33.319Z,42.83
2023-05-09T07:47:33.352Z,43.03
2023-05-09T07:48:33.357Z,43.20
2023-05-09T07:49:33.419Z,43.32
2023-05-09T07:50:33.492Z,43.41
2023-05-09T07:51:33.528Z,43.54
2023-05-09T07:52:33.602Z,43.53
2023-05-09T07:53:33.637Z,43.53
2023-05-09T07:54:33.797Z,43.60
2023-05-09T07:55:33.748Z,43.56
2023-05-09T07:56:33.961Z,43.57
2023-05-09T07:57:33.873Z,43.76
2023-05-09T07:58:33.946Z,43.89
2023-05-09T07:59:34.414Z,43.93
2023-05-09T08:00:34.072Z,44.00
2023-05-09T08:01:34.133Z,44.03
2023-05-09T08:02:34.276Z,44.01
2023-05-09T08:03:34.283Z,44.00
2023-05-09T08:04:34.373Z,43.70
2023-05-09T08:05:34.353Z,43.52
2023-05-09T08:06:34.410Z,43.60
2023-05-09T08:07:34.472Z,43.62
2023-05-09T08:08:34.502Z,43.56
2023-05-09T08:09:34.536Z,43.55
2023-05-09T08:10:34.582Z,43.40
2023-05-09T08:11:34.655Z,43.20
2023-05-09T08:12:34.688Z,43.17
2023-05-09T08:13:34.745Z,43.16
2023-05-09T08:14:34.754Z,43.12
2023-05-09T08:15:34.895Z,43.01
2023-05-09T08:16:34.818Z,42.97
2023-05-09T08:17:34.838Z,42.98
2023-05-09T08:18:34.820Z,42.98
2023-05-09T08:19:34.838Z,42.88
2023-05-09T08:20:34.849Z,42.89
2023-05-09T08:21:34.871Z,43.02
2023-05-09T08:22:34.933Z,43.43
2023-05-09T08:23:35.312Z,42.78
2023-05-09T08:24:34.926Z,43.87
2023-05-09T08:25:34.964Z,43.39
2023-05-09T08:26:35.042Z,42.68
2023-05-09T08:27:35.014Z,42.22
2023-05-09T08:28:35.065Z,41.78
2023-05-09T08:29:35.067Z,41.59
2023-05-09T08:30:35.051Z,41.23
2023-05-09T08:31:35.293Z,40.99
2023-05-09T08:32:35.257Z,40.70
2023-05-09T08:33:35.293Z,40.50
2023-05-09T08:34:35.290Z,40.29
2023-05-09T08:35:35.308Z,40.19
2023-05-09T08:36:35.343Z,40.55
2023-05-09T08:37:35.349Z,41.12
2023-05-09T08:38:35.339Z,41.99
2023-05-09T08:39:35.850Z,41.48
2023-05-09T08:40:35.345Z,41.00
2023-05-09T08:41:35.323Z,41.19
2023-05-09T08:42:35.389Z,41.21
2023-05-09T08:43:35.826Z,41.61
2023-05-09T08:44:35.477Z,41.82
2023-05-09T08:45:35.544Z,41.86
2023-05-09T08:46:35.632Z,42.00
2023-05-09T08:47:35.747Z,42.14
2023-05-09T08:48:36.129Z,42.30
2023-05-09T08:49:35.714Z,42.07
2023-05-09T08:50:35.738Z,42.30
2023-05-09T08:51:35.840Z,42.20
2023-05-09T08:52:35.821Z,42.54
2023-05-09T08:53:36.361Z,42.40
2023-05-09T08:54:35.910Z,42.33
2023-05-09T08:55:35.920Z,42.36
2023-05-09T08:56:35.949Z,42.27
2023-05-09T08:57:35.988Z,42.26
2023-05-09T08:58:35.981Z,42.13
2023-05-09T08:59:36.182Z,42.22
2023-05-09T09:00:36.060Z,42.22
2023-05-09T09:01:36.152Z,42.26
2023-05-09T09:02:36.161Z,41.92
2023-05-09T09:03:36.275Z,42.25
2023-05-09T09:04:36.357Z,42.15
2023-05-09T09:06:36.249Z,42.32
2023-05-09T09:07:36.259Z,42.16
2023-05-09T09:08:36.244Z,42.28
2023-05-09T09:09:36.244Z,42.18
2023-05-09T09:10:36.215Z,42.18
2023-05-09T09:11:36.294Z,42.15
2023-05-09T09:12:36.235Z,42.04
2023-05-09T09:13:36.280Z,41.75
2023-05-09T09:14:36.340Z,41.85
2023-05-09T09:15:36.194Z,41.92
2023-05-09T09:16:36.258Z,41.86
2023-05-09T09:17:36.230Z,42.20
2023-05-09T09:18:36.176Z,42.56
2023-05-09T09:19:36.242Z,42.60
2023-05-09T09:20:36.182Z,42.04
2023-05-09T09:21:36.145Z,41.69
2023-05-09T09:22:36.137Z,41.58
2023-05-09T09:23:36.152Z,41.63
2023-05-09T09:24:36.349Z,41.66
2023-05-09T09:25:36.145Z,41.60
2023-05-09T09:26:36.117Z,41.56
2023-05-09T09:27:36.106Z,41.81
2023-05-09T09:28:36.116Z,41.76
2023-05-09T09:29:36.367Z,41.83
2023-05-09T09:30:36.108Z,41.82
2023-05-09T09:31:36.150Z,41.81
2023-05-09T09:32:36.128Z,41.93
2023-05-09T09:33:36.082Z,41.95
2023-05-09T09:34:36.351Z,41.81
2023-05-09T09:35:36.146Z,41.15
2023-05-09T09:36:36.096Z,41.69
2023-05-09T09:37:36.049Z,41.08
2023-05-09T09:38:36.049Z,41.47
2023-05-09T09:39:36.347Z,41.19
2023-05-09T09:40:36.032Z,41.04
2023-05-09T09:41:36.038Z,40.50
2023-05-09T09:42:36.001Z,40.85
2023-05-09T09:43:36.003Z,40.85
2023-05-09T09:44:36.357Z,40.61
2023-05-09T09:45:36.047Z,40.90
2023-05-09T09:46:36.090Z,41.02
2023-05-09T09:47:36.005Z,41.12
2023-05-09T09:48:36.395Z,41.41
2023-05-09T09:49:36.348Z,41.49
2023-05-09T09:50:35.964Z,40.56
2023-05-09T09:51:36.040Z,40.73
2023-05-09T09:52:35.933Z,41.07
2023-05-09T09:53:35.930Z,41.10
2023-05-09T09:54:36.448Z,41.01
2023-05-09T09:55:35.919Z,40.76
2023-05-09T09:56:35.928Z,40.85
2023-05-09T09:57:35.918Z,40.70
2023-05-09T09:58:35.891Z,40.83
2023-05-09T09:59:35.909Z,40.81
2023-05-09T10:00:35.885Z,40.81
2023-05-09T10:01:35.941Z,40.78
2023-05-09T10:02:35.906Z,40.68
2023-05-09T10:03:35.873Z,40.66
2023-05-09T10:04:35.885Z,40.29
2023-05-09T10:05:35.863Z,40.55
2023-05-09T10:06:35.839Z,40.57
2023-05-09T10:07:35.925Z,40.45
2023-05-09T10:08:35.851Z,40.31
2023-05-09T10:09:35.856Z,40.37
2023-05-09T10:10:35.812Z,40.23
2023-05-09T10:11:35.807Z,40.31
2023-05-09T10:12:35.826Z,40.02
2023-05-09T10:13:35.817Z,40.17
2023-05-09T10:14:35.900Z,40.18
2023-05-09T10:15:49.280Z,39.99
2023-05-09T10:16:43.916Z,39.93
2023-05-09T10:17:36.992Z,39.98
2023-05-09T10:18:36.080Z,40.00
2023-05-09T10:19:35.876Z,39.57
2023-05-09T10:20:35.857Z,39.94
2023-05-09T10:21:36.761Z,39.83
2023-05-09T10:22:35.834Z,39.66
2023-05-09T10:23:35.913Z,39.67
2023-05-09T10:24:35.910Z,39.80
2023-05-09T10:25:35.810Z,39.99
2023-05-09T10:26:35.815Z,40.18
2023-05-09T10:27:35.787Z,40.26
2023-05-09T10:28:35.816Z,40.27
2023-05-09T10:29:35.848Z,40.23
2023-05-09T10:30:35.931Z,40.22
2023-05-09T10:31:35.963Z,40.43
2023-05-09T10:32:35.995Z,40.48
2023-05-09T10:33:36.004Z,40.59
2023-05-09T10:34:36.378Z,40.59
2023-05-09T10:35:36.071Z,40.62
2023-05-09T10:36:36.099Z,40.74
2023-05-09T10:37:36.148Z,40.57
2023-05-09T10:38:36.216Z,40.68
2023-05-09T10:39:36.334Z,40.70
2023-05-09T10:40:36.317Z,40.71
2023-05-09T10:41:36.335Z,40.55
2023-05-09T10:42:36.349Z,40.70
2023-05-09T10:43:36.833Z,40.82
2023-05-09T10:44:36.870Z,40.75
2023-05-09T10:45:36.398Z,40.77
2023-05-09T10:46:36.412Z,40.74
2023-05-09T10:47:36.408Z,40.77
2023-05-09T10:48:36.451Z,40.57
2023-05-09T10:49:37.238Z,40.76
2023-05-09T10:50:36.434Z,40.63
2023-05-09T10:51:36.465Z,40.79
2023-05-09T10:52:36.502Z,40.55
2023-05-09T10:53:36.488Z,40.79
2023-05-09T10:54:36.896Z,40.84
2023-05-09T10:55:36.589Z,40.83
2023-05-09T10:56:36.532Z,40.87
2023-05-09T10:57:36.522Z,40.90
2023-05-09T10:58:36.590Z,40.91
2023-05-09T10:59:36.884Z,40.94
2023-05-09T11:00:36.572Z,40.93
2023-05-09T11:01:36.699Z,41.00
2023-05-09T11:02:36.724Z,40.97
2023-05-09T11:03:36.814Z,40.96
2023-05-09T11:04:36.881Z,41.01
2023-05-09T11:05:36.814Z,40.99
2023-05-09T11:06:36.838Z,40.98
2023-05-09T11:07:36.879Z,40.97
2023-05-09T11:08:36.914Z,40.60
2023-05-09T11:09:36.933Z,40.90
2023-05-09T11:10:36.963Z,40.84
2023-05-09T11:11:37.060Z,40.70
2023-05-09T11:12:37.060Z,40.57
2023-05-09T11:13:37.084Z,40.52
2023-05-09T11:14:37.408Z,40.41
2023-05-09T11:15:37.195Z,39.94
2023-05-09T11:16:37.246Z,39.06
2023-05-09T11:17:37.271Z,39.63
2023-05-09T11:18:37.308Z,39.62
2023-05-09T11:19:37.400Z,38.59
2023-05-09T11:20:37.399Z,38.67
2023-05-09T11:21:37.432Z,38.52
2023-05-09T11:22:37.477Z,38.49
2023-05-09T11:23:37.534Z,38.24
2023-05-09T11:24:37.566Z,37.82
2023-05-09T11:25:37.607Z,37.82
2023-05-09T11:26:37.620Z,37.59
2023-05-09T11:27:37.747Z,37.82
2023-05-09T11:28:37.709Z,37.63
2023-05-09T11:29:37.767Z,37.25
2023-05-09T11:30:37.808Z,36.78
2023-05-09T11:31:37.869Z,36.70
2023-05-09T11:32:37.893Z,36.59
2023-05-09T11:33:37.927Z,36.22
2023-05-09T11:34:37.947Z,36.32
2023-05-09T11:35:37.993Z,36.11
2023-05-09T11:36:38.041Z,35.90
2023-05-09T11:37:38.092Z,35.87
2023-05-09T11:38:38.118Z,35.68
2023-05-09T11:39:38.178Z,35.68
2023-05-09T11:40:38.229Z,35.35
2023-05-09T11:41:38.300Z,35.29
2023-05-09T11:42:38.339Z,35.34
2023-05-09T11:43:38.432Z,35.43
2023-05-09T11:44:38.353Z,35.55
2023-05-09T11:45:38.407Z,35.54
2023-05-09T11:46:38.414Z,35.51
2023-05-09T11:47:38.508Z,35.54
2023-05-09T11:48:38.502Z,35.52
2023-05-09T11:49:38.615Z,35.36
2023-05-09T11:50:38.636Z,35.35
2023-05-09T11:51:38.639Z,35.41
2023-05-09T11:52:38.691Z,35.42
2023-05-09T11:53:38.707Z,35.46
2023-05-09T11:54:38.775Z,35.53
2023-05-09T11:55:38.793Z,35.61
2023-05-09T11:56:38.862Z,35.59
2023-05-09T11:57:38.925Z,35.58
2023-05-09T11:58:38.971Z,35.57
2023-05-09T11:59:39.149Z,35.53
2023-05-09T12:00:39.054Z,35.60
2023-05-09T12:01:39.117Z,35.54
2023-05-09T12:02:39.273Z,35.57
2023-05-09T12:03:39.297Z,35.61
2023-05-09T12:04:39.516Z,35.62
2023-05-09T12:05:39.345Z,36.04
2023-05-09T12:06:39.434Z,36.05
2023-05-09T12:07:39.541Z,36.11
2023-05-09T12:08:39.502Z,36.32
2023-05-09T12:09:39.584Z,36.45
2023-05-09T12:10:39.611Z,36.41
2023-05-09T12:11:39.601Z,37.16
2023-05-09T12:12:39.654Z,36.98
2023-05-09T12:13:39.721Z,36.86
2023-05-09T12:14:39.795Z,37.13
2023-05-09T12:15:39.963Z,37.10
2023-05-09T12:16:39.962Z,37.20
2023-05-09T12:17:39.931Z,37.38
2023-05-09T12:18:39.886Z,37.44
2023-05-09T12:19:39.913Z,37.80
2023-05-09T12:20:39.904Z,37.74
2023-05-09T12:21:39.945Z,37.92
2023-05-09T12:22:39.996Z,37.87
2023-05-09T12:23:40.011Z,37.79
2023-05-09T12:24:40.086Z,37.96
2023-05-09T12:25:40.138Z,37.88
2023-05-09T12:26:40.150Z,37.82
2023-05-09T12:27:40.227Z,37.86
2023-05-09T12:28:40.284Z,37.84
2023-05-09T12:29:40.339Z,38.10
2023-05-09T12:30:40.349Z,38.08
2023-05-09T12:31:40.557Z,38.02
2023-05-09T12:32:40.767Z,38.15
2023-05-09T12:33:40.509Z,38.38
2023-05-09T12:34:40.487Z,38.80
2023-05-09T12:35:40.540Z,38.75
2023-05-09T12:36:40.504Z,38.59
2023-05-09T12:37:40.557Z,38.57
2023-05-09T12:38:40.516Z,38.60
2023-05-09T12:39:40.518Z,38.64
2023-05-09T12:40:40.506Z,38.76
2023-05-09T12:41:49.766Z,38.58
2023-05-09T12:42:41.496Z,38.35
2023-05-09T12:43:40.483Z,38.46
2023-05-09T12:44:40.485Z,38.31
2023-05-09T12:45:40.639Z,38.29
2023-05-09T12:46:40.477Z,38.27
2023-05-09T12:47:40.591Z,38.27
2023-05-09T12:48:40.471Z,38.26
2023-05-09T12:49:40.441Z,38.07
2023-05-09T12:50:40.449Z,38.13
2023-05-09T12:51:40.521Z,37.72
2023-05-09T12:52:54.147Z,37.91
2023-05-09T12:53:41.574Z,37.81